Terminal Aerodrome Forecast
Issued by NWS

Home | Current Version | Previous Version | Text Only | Print | Product List | Glossary On
Versions: 1 2 3 4 5 6 7 8 9 10 11 12 13 14 15 16 17 18 19 20 21 22 23 24 25 26
000
FTUS41 KGYX 171120
TAFLEB
TAF
KLEB 171120Z 1712/1812 00000KT 1/4SM FG VV001
     FM171400 VRB03KT P6SM FEW050 SCT100 BKN250
     FM172000 23005KT P6SM SCT060 SCT100
     FM180000 VRB03KT P6SM SCT100 BKN250
     FM180600 00000KT 1/4SM FG VV001=

USA.gov is the U.S. government's official web portal to all federal, state and local government web resources and services.